Bad Ischl, Austria
Current Conditions -  °F | °C
As of 4:50 AM on Thursday 23 Oct 2014 (Local Time) from LOWS Reporting Station
Moderate Rain Moderate Rain  
Wind Chill: 35°   Ceiling: 2000
Heat Index: 43°   Visibility: 4mi
Dew Point: 39°   Wind: 17mph
Humidity: 87%   Direction: 290°WNW
Pressure: 29.88"   Gusts: 31mph
Location:  47.72°N, 13.61°E
Report Text: LOWS 230250Z 29015G27KT 6000 RA FEW012 BKN020 06/04 Q1012 NOSIG
Loading
Personal Weather Stations






























Interactive Weather Map
Tropical Storm Tracking
New forecast layout! Learn more

10-Day Weather Forecast

Advertisements
Track Severe Weather on mobile